Time;durP1;ratioP1;P1;durP2;ratioP2;P2;SDS_P1;SDS_P2;PMS_P1;PMS_P2;Temp;Humidity;BMP_temperature;BMP_pressure;BME280_temperature;BME280_humidity;BME280_pressure;Samples;Min_cycle;Max_cycle;Signal;HPM_P1;HPM_P2
2022/10/09 00:01:49;;;;;;;;;;;7.30;99.90;;;;;;5048325;28;20375;-81
2022/10/09 00:04:15;;;;;;;;;;;7.20;99.90;;;;;;5045595;28;19924;-80
2022/10/09 00:06:40;;;;;;;;;;;7.20;99.90;;;;;;5045612;28;19970;-80
2022/10/09 00:09:08;;;;;;;;;;;7.20;99.90;;;;;;5050173;28;19917;-80
2022/10/09 00:11:34;;;;;;;;;;;7.30;99.90;;;;;;5047760;28;19916;-80
2022/10/09 00:14:00;;;;;;;;;;;7.20;99.90;;;;;;5046644;28;20425;-80
2022/10/09 00:16:26;;;;;;;;;;;7.20;99.90;;;;;;5049696;28;19924;-81
2022/10/09 00:18:52;;;;;;;;;;;7.20;99.90;;;;;;5047900;28;19917;-80
2022/10/09 00:21:20;;;;;;;;;;;7.10;99.90;;;;;;5049805;28;20458;-80
2022/10/09 00:23:45;;;;;;;;;;;7.10;99.90;;;;;;5046938;28;19917;-80
2022/10/09 00:26:11;;;;;;;;;;;7.10;99.90;;;;;;5043562;28;19959;-80
2022/10/09 00:28:36;;;;;;;;;;;7.00;99.90;;;;;;5044241;28;19917;-81
2022/10/09 00:31:03;;;;;;;;;;;6.90;99.90;;;;;;5058918;28;19956;-81
2022/10/09 00:33:28;;;;;;;;;;;6.90;99.90;;;;;;5077234;28;19941;-81
2022/10/09 00:35:54;;;;;;;;;;;6.80;99.90;;;;;;5076276;28;20512;-80
2022/10/09 00:38:19;;;;;;;;;;;6.80;99.90;;;;;;5077952;28;19920;-81
2022/10/09 00:40:45;;;;;;;;;;;6.80;99.90;;;;;;5079652;28;19973;-81
2022/10/09 00:43:16;;;;;;;;;;;6.80;99.90;;;;;;5078464;28;19915;-81
2022/10/09 00:45:54;;;;;;;;;;;6.80;99.90;;;;;;5079507;28;19932;-81
2022/10/09 00:48:19;;;;;;;;;;;6.90;99.90;;;;;;5075033;28;20374;-81
2022/10/09 00:50:48;;;;;;;;;;;6.80;99.90;;;;;;5080516;28;19916;-81
2022/10/09 00:53:15;;;;;;;;;;;6.80;99.90;;;;;;5079023;28;19920;-81
2022/10/09 00:55:42;;;;;;;;;;;6.70;99.90;;;;;;5074847;28;20015;-81
2022/10/09 00:58:08;;;;;;;;;;;6.70;99.90;;;;;;5080144;28;19942;-81
2022/10/09 01:00:33;;;;;;;;;;;6.70;99.90;;;;;;5077478;28;19935;-82
2022/10/09 01:02:59;;;;;;;;;;;6.70;99.90;;;;;;5053858;28;19916;-81
2022/10/09 01:05:33;;;;;;;;;;;6.70;99.90;;;;;;5058789;28;20419;-81
2022/10/09 01:08:02;;;;;;;;;;;6.60;99.90;;;;;;5058132;28;19978;-82
2022/10/09 01:10:30;;;;;;;;;;;6.60;99.90;;;;;;5049730;28;19916;-80
2022/10/09 01:12:55;;;;;;;;;;;6.50;99.90;;;;;;5055840;28;20405;-82
2022/10/09 01:15:39;;;;;;;;;;;6.50;99.90;;;;;;5061322;28;19917;-81
2022/10/09 01:18:28;;;;;;;;;;;6.60;99.90;;;;;;5053352;28;19913;-81
2022/10/09 01:20:59;;;;;;;;;;;6.50;99.90;;;;;;5059622;28;20345;-81
2022/10/09 01:23:24;;;;;;;;;;;6.50;99.90;;;;;;5057197;28;19951;-81
2022/10/09 01:26:07;;;;;;;;;;;6.40;99.90;;;;;;5050170;28;19951;-81
2022/10/09 01:28:34;;;;;;;;;;;6.40;99.90;;;;;;5058233;28;19978;-81
2022/10/09 01:31:01;;;;;;;;;;;6.30;99.90;;;;;;5054293;28;20466;-81
2022/10/09 01:33:28;;;;;;;;;;;6.30;99.90;;;;;;5044884;28;20330;-82
2022/10/09 01:35:54;;;;;;;;;;;6.30;99.90;;;;;;5052634;28;19917;-81
2022/10/09 01:38:20;;;;;;;;;;;6.30;99.90;;;;;;5057622;28;19970;-82
2022/10/09 01:40:46;;;;;;;;;;;6.40;99.90;;;;;;5051713;28;20337;-81
2022/10/09 01:43:12;;;;;;;;;;;6.40;99.90;;;;;;5058163;28;19917;-81
2022/10/09 01:45:38;;;;;;;;;;;6.40;99.90;;;;;;5055095;28;20284;-81
2022/10/09 01:48:04;;;;;;;;;;;6.40;99.90;;;;;;5053575;28;19920;-82
2022/10/09 01:50:33;;;;;;;;;;;6.40;99.90;;;;;;5058380;28;19917;-79
2022/10/09 01:53:10;;;;;;;;;;;6.30;99.90;;;;;;5051338;28;20411;-78
2022/10/09 01:55:38;;;;;;;;;;;6.30;99.90;;;;;;5046662;28;19916;-79
2022/10/09 01:58:22;;;;;;;;;;;6.30;99.90;;;;;;5062412;28;20390;-80
2022/10/09 02:00:51;;;;;;;;;;;6.30;99.90;;;;;;5058325;28;20284;-79
2022/10/09 02:03:17;;;;;;;;;;;6.40;99.90;;;;;;5053638;28;19924;-79
2022/10/09 02:05:44;;;;;;;;;;;6.40;99.90;;;;;;5060276;28;19917;-79
2022/10/09 02:08:12;;;;;;;;;;;6.40;99.90;;;;;;5058070;28;19916;-79
2022/10/09 02:10:39;;;;;;;;;;;6.40;99.90;;;;;;5052043;28;20452;-79
2022/10/09 02:13:04;;;;;;;;;;;6.40;99.90;;;;;;5058862;28;19967;-80
2022/10/09 02:15:33;;;;;;;;;;;6.40;99.90;;;;;;5061158;28;20318;-79
2022/10/09 02:18:02;;;;;;;;;;;6.30;99.90;;;;;;5055747;28;19927;-80
2022/10/09 02:20:30;;;;;;;;;;;6.40;99.90;;;;;;5055595;28;20011;-79
2022/10/09 02:22:56;;;;;;;;;;;6.30;99.90;;;;;;5052955;28;20023;-79
2022/10/09 02:25:22;;;;;;;;;;;6.30;99.90;;;;;;5054626;28;19923;-81
2022/10/09 02:27:48;;;;;;;;;;;6.30;99.90;;;;;;5058981;28;19999;-79
2022/10/09 02:30:14;;;;;;;;;;;6.30;99.90;;;;;;5056277;28;20455;-80
2022/10/09 02:32:39;;;;;;;;;;;6.30;99.90;;;;;;5050583;28;20377;-80
2022/10/09 02:35:05;;;;;;;;;;;6.20;99.90;;;;;;5059386;28;19916;-80
2022/10/09 02:37:30;;;;;;;;;;;6.30;99.90;;;;;;5060368;28;19966;-80
2022/10/09 02:39:56;;;;;;;;;;;6.20;99.90;;;;;;5055135;28;19988;-79
2022/10/09 02:42:22;;;;;;;;;;;6.30;99.90;;;;;;5056864;28;20011;-79
2022/10/09 02:44:47;;;;;;;;;;;6.30;99.90;;;;;;5056474;28;20363;-79
2022/10/09 02:47:14;;;;;;;;;;;6.20;99.90;;;;;;5054242;28;20428;-79
2022/10/09 02:49:40;;;;;;;;;;;6.10;99.90;;;;;;5050735;28;19924;-80
2022/10/09 02:52:06;;;;;;;;;;;6.10;99.90;;;;;;5054771;28;20440;-79
2022/10/09 02:54:31;;;;;;;;;;;6.10;99.90;;;;;;5061601;28;20015;-80
2022/10/09 02:56:57;;;;;;;;;;;6.10;99.90;;;;;;5057131;28;19978;-80
2022/10/09 02:59:22;;;;;;;;;;;6.10;99.90;;;;;;5062035;28;19944;-82
2022/10/09 03:01:48;;;;;;;;;;;6.10;99.90;;;;;;5055119;28;20433;-79
2022/10/09 03:04:13;;;;;;;;;;;6.10;99.90;;;;;;5051118;28;19924;-79
2022/10/09 03:06:39;;;;;;;;;;;6.10;99.90;;;;;;5051130;28;19928;-80
2022/10/09 03:09:04;;;;;;;;;;;6.10;99.90;;;;;;5051438;28;19999;-80
2022/10/09 03:11:30;;;;;;;;;;;6.10;99.90;;;;;;5049678;28;20451;-80
2022/10/09 03:13:55;;;;;;;;;;;6.10;99.90;;;;;;5051182;28;19933;-79
2022/10/09 03:16:22;;;;;;;;;;;6.10;99.90;;;;;;5050057;28;19944;-80
2022/10/09 03:18:48;;;;;;;;;;;6.00;99.90;;;;;;5050083;28;19913;-81
2022/10/09 03:21:15;;;;;;;;;;;6.10;99.90;;;;;;5047628;28;19920;-81
2022/10/09 03:23:42;;;;;;;;;;;6.10;99.90;;;;;;5047469;28;19973;-80
2022/10/09 03:26:09;;;;;;;;;;;6.20;99.90;;;;;;5049212;28;19982;-81
2022/10/09 03:28:35;;;;;;;;;;;6.10;99.90;;;;;;5050331;28;19916;-80
2022/10/09 03:31:01;;;;;;;;;;;6.20;99.90;;;;;;5055158;28;19927;-81
2022/10/09 03:33:26;;;;;;;;;;;6.10;99.90;;;;;;5076309;28;19921;-80
2022/10/09 03:35:52;;;;;;;;;;;6.10;99.90;;;;;;5083824;28;19916;-80
2022/10/09 03:38:17;;;;;;;;;;;6.20;99.90;;;;;;5078236;28;20674;-80
2022/10/09 03:40:43;;;;;;;;;;;6.20;99.90;;;;;;5070758;28;19995;-81
2022/10/09 03:43:08;;;;;;;;;;;6.10;99.90;;;;;;5083849;28;19969;-80
2022/10/09 03:45:34;;;;;;;;;;;6.10;99.90;;;;;;5080425;28;19924;-80
2022/10/09 03:48:00;;;;;;;;;;;6.10;99.90;;;;;;5070617;28;19913;-82
2022/10/09 03:50:25;;;;;;;;;;;6.20;99.90;;;;;;5081626;28;19960;-81
2022/10/09 03:52:51;;;;;;;;;;;6.20;99.90;;;;;;5083313;28;19959;-80
2022/10/09 03:55:16;;;;;;;;;;;6.20;99.90;;;;;;5075198;28;19917;-79
2022/10/09 03:57:42;;;;;;;;;;;6.20;99.90;;;;;;5080798;28;20011;-80
2022/10/09 04:00:08;;;;;;;;;;;6.20;99.90;;;;;;5082049;28;20012;-81
2022/10/09 04:02:34;;;;;;;;;;;6.20;99.90;;;;;;5055523;28;19970;-82
2022/10/09 04:04:59;;;;;;;;;;;6.30;99.90;;;;;;5060448;28;19920;-79
2022/10/09 04:07:25;;;;;;;;;;;6.30;99.90;;;;;;5062818;28;19916;-81
2022/10/09 04:09:51;;;;;;;;;;;6.30;99.90;;;;;;5055074;28;20015;-82
2022/10/09 04:12:16;;;;;;;;;;;6.40;99.90;;;;;;5052807;28;19970;-80
2022/10/09 04:14:42;;;;;;;;;;;6.30;99.90;;;;;;5060128;28;19928;-79
2022/10/09 04:17:07;;;;;;;;;;;6.30;99.90;;;;;;5057445;28;19919;-82
2022/10/09 04:19:33;;;;;;;;;;;6.30;99.90;;;;;;5058024;28;19920;-80
2022/10/09 04:21:58;;;;;;;;;;;6.30;99.90;;;;;;5062229;28;20322;-79
2022/10/09 04:24:24;;;;;;;;;;;6.30;99.90;;;;;;5057354;28;20374;-79
2022/10/09 04:26:49;;;;;;;;;;;6.30;99.90;;;;;;5074555;28;19924;-80
2022/10/09 04:29:15;;;;;;;;;;;6.30;99.90;;;;;;5064343;28;19921;-80
2022/10/09 04:31:40;;;;;;;;;;;6.30;99.90;;;;;;5052628;28;19971;-80
2022/10/09 04:34:06;;;;;;;;;;;6.30;99.90;;;;;;5058855;28;19920;-80
2022/10/09 04:36:31;;;;;;;;;;;6.30;99.90;;;;;;5058527;28;20379;-82
2022/10/09 04:38:57;;;;;;;;;;;6.30;99.90;;;;;;5056487;28;19958;-81
2022/10/09 04:41:22;;;;;;;;;;;6.30;99.90;;;;;;5041620;28;19969;-80
2022/10/09 04:43:52;;;;;;;;;;;6.30;99.90;;;;;;5060175;28;19920;-80
2022/10/09 04:46:18;;;;;;;;;;;6.30;99.90;;;;;;5049594;28;20007;-80
2022/10/09 04:48:44;;;;;;;;;;;6.30;99.90;;;;;;5049817;28;20007;-80
2022/10/09 04:51:10;;;;;;;;;;;6.30;99.90;;;;;;5055644;28;19920;-80
2022/10/09 04:53:36;;;;;;;;;;;6.30;99.90;;;;;;5056624;28;20387;-79
2022/10/09 04:56:03;;;;;;;;;;;6.20;99.90;;;;;;5055070;28;19982;-80
2022/10/09 04:58:29;;;;;;;;;;;6.20;99.90;;;;;;5065469;28;20318;-80
2022/10/09 05:00:55;;;;;;;;;;;6.20;99.90;;;;;;5054248;28;19920;-79
2022/10/09 05:03:20;;;;;;;;;;;6.20;99.90;;;;;;5073196;28;19917;-79
2022/10/09 05:05:46;;;;;;;;;;;6.20;99.90;;;;;;5083772;28;20038;-81
2022/10/09 05:08:11;;;;;;;;;;;6.10;99.90;;;;;;5078784;28;19916;-80
2022/10/09 05:10:37;;;;;;;;;;;6.10;99.90;;;;;;5073671;28;19967;-81
2022/10/09 05:13:03;;;;;;;;;;;6.10;99.90;;;;;;5080152;28;20554;-81
2022/10/09 05:15:28;;;;;;;;;;;6.20;99.90;;;;;;5077372;28;19920;-81
2022/10/09 05:17:54;;;;;;;;;;;6.20;99.90;;;;;;5074971;28;20015;-82
2022/10/09 05:20:19;;;;;;;;;;;6.30;99.90;;;;;;5074545;28;19923;-80
2022/10/09 05:22:45;;;;;;;;;;;6.30;99.90;;;;;;5076641;28;20014;-83
2022/10/09 05:25:11;;;;;;;;;;;6.30;99.90;;;;;;5073747;28;19969;-80
2022/10/09 05:27:36;;;;;;;;;;;6.30;99.90;;;;;;5081368;28;19924;-80
2022/10/09 05:30:03;;;;;;;;;;;6.30;99.90;;;;;;5078622;28;19920;-79
2022/10/09 05:32:28;;;;;;;;;;;6.30;99.90;;;;;;5075478;28;19928;-80
2022/10/09 05:34:54;;;;;;;;;;;6.30;99.90;;;;;;5073116;28;19923;-80
2022/10/09 05:37:19;;;;;;;;;;;6.30;99.90;;;;;;5075155;28;20440;-79
2022/10/09 05:39:45;;;;;;;;;;;6.20;99.90;;;;;;5074411;28;20490;-79
2022/10/09 05:42:10;;;;;;;;;;;6.20;99.90;;;;;;5073048;28;19920;-80
2022/10/09 05:44:36;;;;;;;;;;;6.20;99.90;;;;;;5076037;28;19928;-80
2022/10/09 05:47:01;;;;;;;;;;;6.20;99.90;;;;;;5070887;28;19966;-81
2022/10/09 05:49:27;;;;;;;;;;;6.30;99.90;;;;;;5077875;28;19950;-79
2022/10/09 05:51:53;;;;;;;;;;;6.20;99.90;;;;;;5077457;28;20394;-80
2022/10/09 05:54:19;;;;;;;;;;;6.20;99.90;;;;;;5075161;28;19927;-80
2022/10/09 05:56:44;;;;;;;;;;;6.30;99.90;;;;;;5074681;28;19917;-79
2022/10/09 05:59:13;;;;;;;;;;;6.30;99.90;;;;;;5083640;28;19912;-80
2022/10/09 06:01:45;;;;;;;;;;;6.30;99.90;;;;;;5072137;28;19927;-80
2022/10/09 06:04:12;;;;;;;;;;;6.30;99.90;;;;;;5071502;28;19916;-81
2022/10/09 06:06:38;;;;;;;;;;;6.40;99.90;;;;;;5070064;28;19959;-80
2022/10/09 06:09:04;;;;;;;;;;;6.40;99.90;;;;;;5069061;28;19974;-81
2022/10/09 06:11:31;;;;;;;;;;;6.50;99.90;;;;;;5068001;28;19916;-83
2022/10/09 06:13:57;;;;;;;;;;;6.40;99.90;;;;;;5073176;28;19924;-78
2022/10/09 06:16:24;;;;;;;;;;;6.30;99.90;;;;;;5069954;28;20378;-80
2022/10/09 06:18:51;;;;;;;;;;;6.40;99.90;;;;;;5071720;28;20297;-83
2022/10/09 06:21:17;;;;;;;;;;;6.30;99.90;;;;;;5077020;28;19919;-80
2022/10/09 06:23:42;;;;;;;;;;;6.30;99.90;;;;;;5074415;28;20289;-80
2022/10/09 06:26:10;;;;;;;;;;;6.30;99.90;;;;;;5067875;28;19925;-81
2022/10/09 06:28:35;;;;;;;;;;;6.30;99.90;;;;;;5073741;28;20358;-82
2022/10/09 06:31:01;;;;;;;;;;;6.40;99.90;;;;;;5073010;28;19942;-82
2022/10/09 06:33:31;;;;;;;;;;;6.40;99.90;;;;;;5079284;28;19935;-80
2022/10/09 06:36:04;;;;;;;;;;;6.30;99.90;;;;;;5077765;28;20053;-82
2022/10/09 06:38:30;;;;;;;;;;;6.40;99.90;;;;;;5075271;28;19916;-81
2022/10/09 06:41:00;;;;;;;;;;;6.40;99.90;;;;;;5074095;28;19931;-80
2022/10/09 06:43:25;;;;;;;;;;;6.40;99.90;;;;;;5080707;28;19913;-79
2022/10/09 06:45:51;;;;;;;;;;;6.60;99.90;;;;;;5072296;28;19982;-81
2022/10/09 06:48:17;;;;;;;;;;;6.60;99.90;;;;;;5071533;28;19928;-81
2022/10/09 06:50:42;;;;;;;;;;;6.60;99.90;;;;;;5075384;28;19920;-83
2022/10/09 06:53:08;;;;;;;;;;;6.60;99.90;;;;;;5070985;28;20027;-81
2022/10/09 06:55:33;;;;;;;;;;;6.60;99.90;;;;;;5071691;28;20291;-81
2022/10/09 06:57:59;;;;;;;;;;;6.70;99.90;;;;;;5073006;28;19969;-81
2022/10/09 07:00:24;;;;;;;;;;;6.80;99.90;;;;;;5068783;28;19920;-80
2022/10/09 07:02:50;;;;;;;;;;;6.70;99.90;;;;;;5077745;28;20477;-81
2022/10/09 07:05:15;;;;;;;;;;;6.90;99.90;;;;;;5086799;28;20438;-81
2022/10/09 07:07:41;;;;;;;;;;;6.90;99.90;;;;;;5084422;28;19959;-82
2022/10/09 07:10:07;;;;;;;;;;;7.20;99.90;;;;;;5071350;28;20036;-82
2022/10/09 07:12:34;;;;;;;;;;;7.10;99.90;;;;;;5079329;28;19928;-80
2022/10/09 07:14:59;;;;;;;;;;;7.10;99.90;;;;;;5079831;28;19912;-82
2022/10/09 07:17:25;;;;;;;;;;;7.20;99.90;;;;;;5077393;28;19920;-83
2022/10/09 07:19:51;;;;;;;;;;;7.10;99.90;;;;;;5080858;28;19923;-83
2022/10/09 07:22:16;;;;;;;;;;;7.20;99.90;;;;;;5082017;28;20042;-81
2022/10/09 07:24:42;;;;;;;;;;;7.20;99.90;;;;;;5067869;28;20410;-82
2022/10/09 07:27:07;;;;;;;;;;;7.20;99.90;;;;;;5099003;28;19924;-82
2022/10/09 07:29:33;;;;;;;;;;;7.20;99.90;;;;;;5082230;28;20050;-79
2022/10/09 07:31:58;;;;;;;;;;;7.30;99.90;;;;;;5061644;28;19924;-79
2022/10/09 07:34:24;;;;;;;;;;;7.40;99.90;;;;;;5058293;28;20358;-79
2022/10/09 07:36:49;;;;;;;;;;;7.40;99.90;;;;;;5060666;28;19916;-80
2022/10/09 07:39:17;;;;;;;;;;;7.40;99.90;;;;;;5056128;28;19917;-78
2022/10/09 07:41:43;;;;;;;;;;;7.50;99.90;;;;;;5050503;28;20369;-79
2022/10/09 07:44:10;;;;;;;;;;;7.50;99.90;;;;;;5059447;28;19916;-79
2022/10/09 07:46:36;;;;;;;;;;;7.70;99.90;;;;;;5048659;28;19917;-79
2022/10/09 07:49:02;;;;;;;;;;;7.70;99.90;;;;;;5053701;28;19919;-80
2022/10/09 07:51:28;;;;;;;;;;;8.10;99.90;;;;;;5061532;28;20394;-79
2022/10/09 07:53:55;;;;;;;;;;;8.30;99.90;;;;;;5051935;28;19967;-79
2022/10/09 07:56:21;;;;;;;;;;;8.40;99.90;;;;;;5047375;28;19919;-77
2022/10/09 07:58:54;;;;;;;;;;;8.30;99.90;;;;;;5063619;28;19928;-80
2022/10/09 08:01:21;;;;;;;;;;;8.10;99.90;;;;;;5054773;28;19963;-80
2022/10/09 08:03:46;;;;;;;;;;;8.00;99.90;;;;;;5055263;28;19925;-80
2022/10/09 08:06:12;;;;;;;;;;;8.20;99.90;;;;;;5055856;28;20373;-80
2022/10/09 08:08:37;;;;;;;;;;;8.30;99.90;;;;;;5065536;28;20549;-79
2022/10/09 08:11:10;;;;;;;;;;;8.40;99.90;;;;;;5063112;28;19917;-78
2022/10/09 08:13:35;;;;;;;;;;;8.70;99.90;;;;;;5055906;28;19920;-79
2022/10/09 08:16:01;;;;;;;;;;;8.80;99.90;;;;;;5056549;28;20544;-79
2022/10/09 08:18:27;;;;;;;;;;;8.80;99.90;;;;;;5057639;28;20286;-78
2022/10/09 08:20:59;;;;;;;;;;;8.70;99.90;;;;;;5050156;28;19921;-78
2022/10/09 08:23:25;;;;;;;;;;;8.60;99.90;;;;;;5057010;28;19916;-80
2022/10/09 08:25:51;;;;;;;;;;;8.60;99.90;;;;;;5052111;28;19920;-78
2022/10/09 08:28:16;;;;;;;;;;;8.60;99.90;;;;;;5061281;28;19967;-81
2022/10/09 08:30:42;;;;;;;;;;;8.50;99.90;;;;;;5061547;28;19968;-81
2022/10/09 08:33:07;;;;;;;;;;;8.70;99.90;;;;;;5070702;28;20011;-81
2022/10/09 08:35:33;;;;;;;;;;;8.70;99.90;;;;;;5075899;28;19920;-82
2022/10/09 08:37:58;;;;;;;;;;;9.00;99.90;;;;;;5073780;28;19916;-81
2022/10/09 08:40:43;;;;;;;;;;;9.00;99.90;;;;;;5073495;28;19920;-80
2022/10/09 08:43:12;;;;;;;;;;;9.10;99.80;;;;;;5058604;28;20442;-81
2022/10/09 08:45:38;;;;;;;;;;;9.10;98.70;;;;;;5074433;28;19973;-81
2022/10/09 08:48:06;;;;;;;;;;;9.10;99.20;;;;;;5067577;28;20023;-80
2022/10/09 08:50:33;;;;;;;;;;;9.20;99.50;;;;;;5073604;28;20287;-80
2022/10/09 08:53:06;;;;;;;;;;;9.50;98.70;;;;;;5070001;28;20027;-80
2022/10/09 08:55:48;;;;;;;;;;;9.80;97.90;;;;;;5071416;28;19916;-83
2022/10/09 08:58:14;;;;;;;;;;;9.70;97.40;;;;;;5075423;28;20030;-81
2022/10/09 09:00:44;;;;;;;;;;;9.60;97.40;;;;;;5073467;28;19970;-80
2022/10/09 09:03:13;;;;;;;;;;;9.80;96.90;;;;;;5074579;28;19916;-77
2022/10/09 09:05:50;;;;;;;;;;;9.60;96.40;;;;;;5071936;28;19990;-78
2022/10/09 09:08:22;;;;;;;;;;;9.50;95.90;;;;;;5080267;28;19916;-81
2022/10/09 09:10:47;;;;;;;;;;;9.60;96.80;;;;;;5073252;28;19916;-83
2022/10/09 09:13:33;;;;;;;;;;;9.70;95.70;;;;;;5079303;28;19920;-81
2022/10/09 09:16:07;;;;;;;;;;;9.80;95.80;;;;;;5076120;28;19946;-81
2022/10/09 09:18:48;;;;;;;;;;;10.00;95.80;;;;;;5070434;28;19952;-81
2022/10/09 09:21:32;;;;;;;;;;;10.10;95.10;;;;;;5076382;28;19916;-80
2022/10/09 09:23:59;;;;;;;;;;;10.20;94.60;;;;;;5076688;28;19916;-82
2022/10/09 09:26:25;;;;;;;;;;;10.30;94.10;;;;;;5076689;28;19916;-81
2022/10/09 09:28:54;;;;;;;;;;;10.20;93.10;;;;;;5079853;28;20008;-79
2022/10/09 09:31:24;;;;;;;;;;;10.10;94.10;;;;;;5061338;28;19920;-82
2022/10/09 09:34:09;;;;;;;;;;;10.20;94.70;;;;;;5049980;28;19916;-80
2022/10/09 09:36:41;;;;;;;;;;;10.60;93.70;;;;;;5065197;28;20294;-80
2022/10/09 09:39:10;;;;;;;;;;;10.60;93.40;;;;;;5053061;28;19919;-81
2022/10/09 09:41:35;;;;;;;;;;;10.80;93.10;;;;;;5058652;28;20306;-80
2022/10/09 09:44:01;;;;;;;;;;;10.90;92.00;;;;;;5059461;28;19927;-78
2022/10/09 09:46:28;;;;;;;;;;;10.80;92.60;;;;;;5047352;28;20573;-84
2022/10/09 09:48:54;;;;;;;;;;;10.90;92.00;;;;;;5075467;28;19920;-81
2022/10/09 09:51:21;;;;;;;;;;;11.10;91.30;;;;;;5058466;28;19920;-82
2022/10/09 09:53:51;;;;;;;;;;;11.20;91.20;;;;;;5047275;28;19916;-80
2022/10/09 09:56:17;;;;;;;;;;;11.40;91.20;;;;;;5049233;28;19979;-80
2022/10/09 09:58:47;;;;;;;;;;;11.50;90.70;;;;;;5056127;28;19947;-81
2022/10/09 10:01:21;;;;;;;;;;;11.40;91.40;;;;;;5055028;28;20382;-81
2022/10/09 10:03:48;;;;;;;;;;;11.50;90.40;;;;;;5056896;28;19920;-82
2022/10/09 10:06:30;;;;;;;;;;;11.70;90.50;;;;;;5058069;28;19986;-82
2022/10/09 10:09:02;;;;;;;;;;;12.00;87.90;;;;;;5057175;28;20387;-82
2022/10/09 10:11:28;;;;;;;;;;;11.80;88.30;;;;;;5062460;28;19943;-82
2022/10/09 10:13:54;;;;;;;;;;;11.80;85.70;;;;;;5062013;28;19935;-83
2022/10/09 10:16:23;;;;;;;;;;;12.00;87.80;;;;;;5057175;28;20015;-82
2022/10/09 10:18:49;;;;;;;;;;;11.80;85.70;;;;;;5063248;28;19931;-81
2022/10/09 10:21:16;;;;;;;;;;;12.00;84.40;;;;;;5058919;28;19921;-81
2022/10/09 10:24:00;;;;;;;;;;;12.20;84.40;;;;;;5054637;28;19917;-81
2022/10/09 10:26:33;;;;;;;;;;;12.30;84.40;;;;;;5051808;28;19963;-81
2022/10/09 10:29:10;;;;;;;;;;;12.60;83.20;;;;;;5063646;28;20338;-82
2022/10/09 10:31:50;;;;;;;;;;;12.60;81.40;;;;;;5065797;28;19916;-82
2022/10/09 10:34:18;;;;;;;;;;;12.50;81.80;;;;;;5075744;28;19922;-81
2022/10/09 10:36:45;;;;;;;;;;;12.40;82.80;;;;;;5080499;28;19940;-80
2022/10/09 10:39:17;;;;;;;;;;;12.60;79.30;;;;;;5079524;28;19916;-85
2022/10/09 10:41:46;;;;;;;;;;;12.70;79.10;;;;;;5097172;28;19925;-85
2022/10/09 10:44:31;;;;;;;;;;;12.80;80.90;;;;;;5086533;28;19920;-83
2022/10/09 10:47:02;;;;;;;;;;;12.90;79.10;;;;;;5077140;28;19935;-84
2022/10/09 10:49:29;;;;;;;;;;;13.00;76.20;;;;;;5082320;28;19920;-85
2022/10/09 10:51:54;;;;;;;;;;;13.10;77.60;;;;;;5078907;28;19916;-81
2022/10/09 10:54:41;;;;;;;;;;;13.40;78.20;;;;;;5073626;28;20291;-80
2022/10/09 10:57:25;;;;;;;;;;;13.40;75.60;;;;;;5076336;28;19924;-82
2022/10/09 10:59:56;;;;;;;;;;;13.30;77.00;;;;;;5078770;28;20053;-82
2022/10/09 11:02:37;;;;;;;;;;;13.30;76.00;;;;;;5075908;28;19917;-80
2022/10/09 11:05:22;;;;;;;;;;;13.30;76.90;;;;;;5082329;28;19912;-79
2022/10/09 11:08:20;;;;;;;;;;;13.40;74.80;;;;;;5063326;28;19916;-82
2022/10/09 11:10:46;;;;;;;;;;;13.30;76.00;;;;;;5042955;28;19923;-82
2022/10/09 11:13:31;;;;;;;;;;;13.40;75.10;;;;;;5080324;28;19921;-80
2022/10/09 11:16:15;;;;;;;;;;;13.40;76.10;;;;;;5077105;28;19912;-80
2022/10/09 11:19:02;;;;;;;;;;;13.70;74.70;;;;;;5074997;28;19969;-81
2022/10/09 11:21:53;;;;;;;;;;;13.70;74.40;;;;;;5077824;28;19917;-81
2022/10/09 11:24:33;;;;;;;;;;;13.70;74.40;;;;;;5077195;28;19920;-81
2022/10/09 11:27:17;;;;;;;;;;;14.10;75.20;;;;;;5074757;28;19920;-80
2022/10/09 11:29:46;;;;;;;;;;;14.50;73.00;;;;;;5076911;28;19920;-80
2022/10/09 11:32:21;;;;;;;;;;;14.60;72.00;;;;;;5075105;28;20390;-80
2022/10/09 11:34:53;;;;;;;;;;;14.80;71.60;;;;;;5080930;28;19931;-79
2022/10/09 11:37:21;;;;;;;;;;;14.90;70.30;;;;;;5076531;28;20045;-79
2022/10/09 11:39:47;;;;;;;;;;;14.90;71.00;;;;;;5075219;28;19918;-79
2022/10/09 11:42:15;;;;;;;;;;;15.20;69.30;;;;;;5077830;28;19913;-79
2022/10/09 11:44:49;;;;;;;;;;;15.30;70.60;;;;;;5075896;28;19931;-79
2022/10/09 11:47:20;;;;;;;;;;;15.90;69.40;;;;;;5071660;28;19978;-79
2022/10/09 11:49:57;;;;;;;;;;;16.10;67.30;;;;;;5087833;28;19967;-78
2022/10/09 11:52:28;;;;;;;;;;;16.00;66.60;;;;;;5075310;28;19913;-79
2022/10/09 11:54:54;;;;;;;;;;;16.00;67.40;;;;;;5072957;28;19955;-79
2022/10/09 11:57:27;;;;;;;;;;;15.60;67.80;;;;;;5080855;28;19968;-79
2022/10/09 12:00:02;;;;;;;;;;;15.50;67.90;;;;;;5067891;28;19921;-78
2022/10/09 12:02:29;;;;;;;;;;;15.30;68.10;;;;;;5073843;28;19982;-79
2022/10/09 12:04:55;;;;;;;;;;;15.30;69.80;;;;;;5083473;28;19924;-79
2022/10/09 12:07:36;;;;;;;;;;;15.90;69.30;;;;;;5080523;28;19920;-79
2022/10/09 12:10:19;;;;;;;;;;;16.20;66.60;;;;;;5072586;28;19912;-79
2022/10/09 12:12:54;;;;;;;;;;;16.00;67.40;;;;;;5070699;28;19942;-79
2022/10/09 12:15:24;;;;;;;;;;;16.00;65.50;;;;;;5073486;28;19917;-79
2022/10/09 12:17:50;;;;;;;;;;;15.60;66.40;;;;;;5076459;28;19917;-79
2022/10/09 12:20:18;;;;;;;;;;;15.60;67.20;;;;;;5071933;28;19923;-78
2022/10/09 12:22:45;;;;;;;;;;;15.40;67.40;;;;;;5069761;28;19920;-78
2022/10/09 12:25:18;;;;;;;;;;;15.40;67.50;;;;;;5070961;28;19916;-79
2022/10/09 12:27:44;;;;;;;;;;;15.40;68.30;;;;;;5068749;28;19912;-78
2022/10/09 12:30:09;;;;;;;;;;;15.50;69.30;;;;;;5070865;28;19916;-78
2022/10/09 12:32:37;;;;;;;;;;;15.70;69.50;;;;;;5069523;28;19924;-78
2022/10/09 12:35:17;;;;;;;;;;;15.40;69.60;;;;;;5077945;28;19920;-79
2022/10/09 12:37:42;;;;;;;;;;;15.40;69.20;;;;;;5073633;28;19916;-78
2022/10/09 12:40:21;;;;;;;;;;;15.20;69.30;;;;;;5075916;28;19943;-79
2022/10/09 12:42:50;;;;;;;;;;;15.30;69.10;;;;;;5075300;28;19970;-78
2022/10/09 12:45:16;;;;;;;;;;;14.90;69.70;;;;;;5070364;28;19924;-82
2022/10/09 12:47:42;;;;;;;;;;;14.60;72.10;;;;;;5076899;28;20343;-78
2022/10/09 12:50:10;;;;;;;;;;;14.90;71.80;;;;;;5076396;28;19916;-78
2022/10/09 12:52:45;;;;;;;;;;;15.00;72.00;;;;;;5067567;28;19916;-78
2022/10/09 12:55:23;;;;;;;;;;;15.00;70.50;;;;;;5072581;28;19923;-78
2022/10/09 12:57:49;;;;;;;;;;;15.20;71.20;;;;;;5071199;28;19925;-78
2022/10/09 13:00:15;;;;;;;;;;;15.20;71.80;;;;;;5070373;28;20028;-78
2022/10/09 13:02:41;;;;;;;;;;;15.10;71.20;;;;;;5071647;28;20532;-78
2022/10/09 13:05:06;;;;;;;;;;;14.90;70.40;;;;;;5077256;28;19921;-78
2022/10/09 13:07:32;;;;;;;;;;;14.60;72.20;;;;;;5074360;28;19930;-79
2022/10/09 13:10:03;;;;;;;;;;;14.70;72.40;;;;;;5069989;28;19947;-78
2022/10/09 13:12:30;;;;;;;;;;;14.70;72.10;;;;;;5088844;28;19913;-77
2022/10/09 13:15:00;;;;;;;;;;;14.80;72.40;;;;;;5086726;28;19920;-78
2022/10/09 13:17:34;;;;;;;;;;;14.70;72.80;;;;;;5077852;28;19981;-78
2022/10/09 13:20:02;;;;;;;;;;;14.80;73.60;;;;;;5075404;28;19927;-78
2022/10/09 13:22:28;;;;;;;;;;;14.80;72.40;;;;;;5072290;28;19928;-78
2022/10/09 13:24:55;;;;;;;;;;;14.50;72.90;;;;;;5074063;28;19931;-77
2022/10/09 13:27:23;;;;;;;;;;;14.10;74.10;;;;;;5079277;28;19916;-77
2022/10/09 13:29:48;;;;;;;;;;;13.90;74.60;;;;;;5075355;28;20034;-78
2022/10/09 13:32:15;;;;;;;;;;;14.20;74.00;;;;;;5066369;28;19924;-78
2022/10/09 13:34:41;;;;;;;;;;;14.30;74.60;;;;;;5071998;28;19916;-78
2022/10/09 13:37:08;;;;;;;;;;;14.50;75.50;;;;;;5070669;28;19917;-78
2022/10/09 13:39:34;;;;;;;;;;;14.30;74.50;;;;;;5066781;28;19916;-78
2022/10/09 13:42:00;;;;;;;;;;;14.20;75.00;;;;;;5075225;28;20013;-78
2022/10/09 13:44:25;;;;;;;;;;;14.30;75.50;;;;;;5073045;28;19947;-78
2022/10/09 13:46:51;;;;;;;;;;;14.40;74.50;;;;;;5071411;28;19917;-77
2022/10/09 13:49:17;;;;;;;;;;;14.40;74.70;;;;;;5082875;28;19916;-78
2022/10/09 13:51:42;;;;;;;;;;;14.30;75.60;;;;;;5062260;28;19921;-78
2022/10/09 13:54:08;;;;;;;;;;;14.50;75.30;;;;;;5069225;28;19932;-77
2022/10/09 13:56:33;;;;;;;;;;;14.50;74.40;;;;;;5065428;28;20401;-78
2022/10/09 13:58:59;;;;;;;;;;;14.50;74.30;;;;;;5067693;28;19921;-78
2022/10/09 14:01:24;;;;;;;;;;;14.50;74.40;;;;;;5068437;28;20018;-78
2022/10/09 14:03:51;;;;;;;;;;;14.40;76.20;;;;;;5076053;28;20385;-78
2022/10/09 14:06:16;;;;;;;;;;;14.40;75.80;;;;;;5074172;28;20023;-78
2022/10/09 14:08:42;;;;;;;;;;;14.60;74.90;;;;;;5071366;28;20027;-78
2022/10/09 14:11:08;;;;;;;;;;;14.40;74.70;;;;;;5075147;28;20057;-78
2022/10/09 14:13:33;;;;;;;;;;;14.40;75.00;;;;;;5074940;28;19921;-79
2022/10/09 14:16:02;;;;;;;;;;;14.40;76.40;;;;;;5069035;28;19924;-78
2022/10/09 14:18:27;;;;;;;;;;;14.60;74.20;;;;;;5074377;28;20001;-78
2022/10/09 14:20:53;;;;;;;;;;;14.90;73.90;;;;;;5073489;28;20021;-78
2022/10/09 14:23:19;;;;;;;;;;;14.90;74.90;;;;;;5072421;28;20445;-78
2022/10/09 14:25:44;;;;;;;;;;;15.20;73.60;;;;;;5074979;28;19916;-78
2022/10/09 14:28:10;;;;;;;;;;;14.90;74.50;;;;;;5073091;28;19916;-79
2022/10/09 14:30:38;;;;;;;;;;;14.90;73.80;;;;;;5072542;28;19926;-78
2022/10/09 14:33:04;;;;;;;;;;;14.60;74.80;;;;;;5081907;28;19924;-78